Aeroporto :







RITROVATECI SU...

 
LOGIN :

Iscrizione | Disclaimer

   EN    FR    IT 

 









Sommario :    VFR   VFR Marginale   IFR   IFR Intensivo   IFR Molto Intensivo
Visibilità : 
Base nubi : 
>= 8 km
>= 3000ft
5 / 8 km
1000 / 3000 ft
1500m / 5 km
500 / 1000 ft
800 / 1500m
200 / 500 ft
< 800m
< 200 ft
Simboli :   Temporali  Nebbia  Neve Forte  Precipitazioni Forti  Vento > 20 kt






- Altitudine del aeroporto : 732 ft


KMVL - Morrisville Stowe State

ULTIMO METAR :
  • 221154Z AUTO 00000KT 10SM OVC029 05/02 A2958 RMK AO2 SLP024 60000 70008 T00500022 10056 20006 57037

METARs OBSOLETI :
  • 221125Z AUTO 19006KT 10SM BKN028 OVC036 06/02 A2961 RMK AO2 T00560022
  • 221054Z AUTO 20008KT 10SM OVC036 05/02 A2962 RMK AO2 RAE19 SLP038 P0000 T00500022
  • 220954Z AUTO 19008KT 10SM -RA BKN037 OVC060 03/01 A2964 RMK AO2 RAB53 SLP048 P0000 T00330011

TAF N/A



MetMap, La meteo Aeronautica in un colpo d'occhio ! - Copyright ORBIFLY Dicembre 2007 - Disclaimer

ORBIFLY MET'MAP TEAM :

Programmazione e sviluppo : Alexandra Zaïnal
Concezione e sviluppo : Baudouin d'Aumeries
Co-Programmazione e sviluppo : Marc-Olivier Méhu
Supporto tecnico e logistico : Manuel Goepfert
Aiuto per la traduzione : Arnaldo La Scala

Contatto : metmap@orbifly.com




FONTI E CREDITI :

   NOAA